Time;durP1;ratioP1;P1;durP2;ratioP2;P2;SDS_P1;SDS_P2;PMS_P1;PMS_P2;Temp;Humidity;BMP_temperature;BMP_pressure;BME280_temperature;BME280_humidity;BME280_pressure;Samples;Min_cycle;Max_cycle;Signal;HPM_P1;HPM_P2
2023/07/08 00:00:19;;;;;;;2.80;2.30;;;22.00;76.10;;;;;;5000588;28;20461;-86
2023/07/08 00:02:45;;;;;;;4.50;2.60;;;22.00;76.10;;;;;;5016498;28;20051;-86
2023/07/08 00:05:15;;;;;;;3.05;2.30;;;22.00;76.20;;;;;;5034197;28;20064;-86
2023/07/08 00:07:42;;;;;;;3.30;2.13;;;21.90;76.20;;;;;;5034391;28;20025;-86
2023/07/08 00:10:29;;;;;;;4.57;1.98;;;21.90;76.20;;;;;;5016810;28;20522;-86
2023/07/08 00:12:58;;;;;;;4.80;2.20;;;21.90;76.40;;;;;;5000111;28;20064;-86
2023/07/08 00:15:28;;;;;;;2.55;2.15;;;21.80;76.40;;;;;;5034297;28;20481;-86
2023/07/08 00:17:54;;;;;;;2.60;1.85;;;21.80;77.00;;;;;;5034324;28;20021;-86
2023/07/08 00:20:31;;;;;;;3.95;2.25;;;21.80;76.50;;;;;;5000523;28;20022;-86
2023/07/08 00:23:01;;;;;;;4.32;2.22;;;21.80;76.60;;;;;;5016545;28;20075;-86
2023/07/08 00:25:27;;;;;;;3.25;2.33;;;21.80;76.70;;;;;;5016241;28;20469;-86
2023/07/08 00:27:53;;;;;;;3.17;2.20;;;21.70;76.70;;;;;;5015994;28;20053;-87
2023/07/08 00:30:26;;;;;;;3.30;1.98;;;21.70;76.70;;;;;;5034486;28;20030;-87
2023/07/08 00:32:53;;;;;;;2.92;2.10;;;21.70;76.70;;;;;;5016282;28;20037;-86
2023/07/08 00:35:33;;;;;;;2.78;2.25;;;21.70;76.80;;;;;;5015925;28;20025;-86
2023/07/08 00:38:02;;;;;;;2.70;2.35;;;21.70;77.00;;;;;;5016641;28;20021;-86
2023/07/08 00:40:30;;;;;;;2.38;2.05;;;21.60;77.00;;;;;;5016736;28;20124;-88
2023/07/08 00:42:58;;;;;;;3.53;2.15;;;21.60;77.20;;;;;;5034254;28;20104;-86
2023/07/08 00:45:40;;;;;;;3.13;2.10;;;21.50;77.30;;;;;;5016094;28;20099;-86
2023/07/08 00:48:25;;;;;;;2.75;2.00;;;21.50;77.50;;;;;;5016269;28;20030;-86
2023/07/08 00:50:53;;;;;;;4.20;2.38;;;21.50;77.60;;;;;;5033747;28;20034;-87
2023/07/08 00:53:31;;;;;;;2.50;2.10;;;21.50;77.70;;;;;;5016073;28;20033;-86
2023/07/08 00:56:32;;;;;;;3.55;2.20;;;21.50;77.90;;;;;;5016127;28;20028;-86
2023/07/08 00:59:00;;;;;;;;;;;21.40;77.90;;;;;;5016602;28;20192;-87
2023/07/08 01:01:28;;;;;;;2.92;2.30;;;21.40;77.90;;;;;;5016098;28;20047;-86
2023/07/08 01:03:55;;;;;;;3.25;2.25;;;21.30;78.10;;;;;;5015842;28;20025;-86
2023/07/08 01:06:23;;;;;;;2.92;2.00;;;21.30;78.20;;;;;;5015991;28;20097;-86
2023/07/08 01:08:52;;;;;;;3.33;2.20;;;21.30;78.20;;;;;;5015337;28;20026;-86
2023/07/08 01:11:21;;;;;;;2.65;2.22;;;21.30;78.40;;;;;;4999952;28;20168;-86
2023/07/08 01:13:50;;;;;;;3.13;1.90;;;21.30;78.50;;;;;;5018372;28;20056;-86
2023/07/08 01:16:16;;;;;;;4.80;2.20;;;21.20;78.50;;;;;;5020259;28;20071;-87
2023/07/08 01:18:43;;;;;;;2.30;2.00;;;21.20;78.40;;;;;;5003828;28;20031;-86
2023/07/08 01:21:30;;;;;;;2.90;2.08;;;21.20;78.40;;;;;;5027055;28;20088;-85
2023/07/08 01:23:58;;;;;;;2.95;2.30;;;21.20;78.50;;;;;;5043763;28;20105;-87
2023/07/08 01:26:25;;;;;;;4.88;2.33;;;21.10;78.50;;;;;;5043866;28;20043;-85
2023/07/08 01:28:54;;;;;;;4.07;2.13;;;21.10;78.60;;;;;;5044284;28;20089;-83
2023/07/08 01:31:24;;;;;;;3.70;2.00;;;21.00;78.70;;;;;;5061076;28;20048;-84
2023/07/08 01:33:52;;;;;;;3.58;2.10;;;21.00;78.70;;;;;;5032766;28;20022;-87
2023/07/08 01:36:18;;;;;;;3.70;2.30;;;21.00;78.80;;;;;;5020326;28;20022;-85
2023/07/08 01:38:45;;;;;;;2.63;2.05;;;20.90;78.90;;;;;;5019973;28;20017;-86
2023/07/08 01:41:13;;;;;;;5.13;2.30;;;20.90;79.00;;;;;;5003369;28;20053;-86
2023/07/08 01:43:39;;;;;;;4.15;2.60;;;20.90;79.10;;;;;;5019295;28;20415;-87
2023/07/08 01:46:14;;;;;;;3.17;2.00;;;20.80;79.10;;;;;;5036917;28;20021;-87
2023/07/08 01:48:45;;;;;;;2.60;2.00;;;20.90;79.30;;;;;;5019187;28;20029;-86
2023/07/08 01:51:12;;;;;;;2.78;2.05;;;20.80;79.30;;;;;;5019160;28;20037;-85
2023/07/08 01:53:40;;;;;;;3.20;2.00;;;20.80;79.40;;;;;;5002446;28;20038;-86
2023/07/08 01:56:07;;;;;;;3.58;2.35;;;20.80;79.60;;;;;;5019226;28;20034;-86
2023/07/08 01:58:33;;;;;;;2.80;1.98;;;20.70;79.60;;;;;;5018663;28;20108;-86
2023/07/08 02:01:00;;;;;;;3.30;2.20;;;20.70;79.80;;;;;;5018829;28;20030;-87
2023/07/08 02:03:29;;;;;;;3.50;2.50;;;20.70;79.80;;;;;;5018891;28;20021;-86
2023/07/08 02:05:55;;;;;;;4.60;2.58;;;20.70;80.00;;;;;;5002956;28;20025;-86
2023/07/08 02:08:24;;;;;;;2.90;2.20;;;20.70;80.20;;;;;;5002349;28;20381;-86
2023/07/08 02:10:52;;;;;;;2.20;1.83;;;20.60;80.20;;;;;;5018567;28;20038;-86
2023/07/08 02:13:19;;;;;;;3.08;2.13;;;20.60;80.40;;;;;;5018616;28;20029;-86
2023/07/08 02:15:44;;;;;;;4.00;2.45;;;20.60;80.50;;;;;;5018485;28;20120;-87
2023/07/08 02:18:10;;;;;;;4.80;2.13;;;20.60;80.60;;;;;;5002386;28;20103;-87
2023/07/08 02:20:36;;;;;;;4.55;2.47;;;20.50;80.80;;;;;;5002157;28;20037;-87
2023/07/08 02:23:09;;;;;;;3.03;2.38;;;20.50;80.90;;;;;;5036313;28;20036;-86
2023/07/08 02:25:34;;;;;;;2.33;2.10;;;20.50;81.10;;;;;;5017797;28;20017;-88
2023/07/08 02:28:00;;;;;;;4.03;2.10;;;20.50;81.20;;;;;;5018232;28;20052;-87
2023/07/08 02:30:27;;;;;;;2.92;2.30;;;20.40;81.10;;;;;;5017742;28;20361;-87
2023/07/08 02:32:59;;;;;;;2.95;2.25;;;20.40;81.30;;;;;;5017636;28;20094;-86
2023/07/08 02:35:27;;;;;;;3.00;2.13;;;20.40;81.40;;;;;;5018071;28;20025;-87
2023/07/08 02:37:54;;;;;;;3.35;2.60;;;20.40;81.50;;;;;;5018119;28;20056;-87
2023/07/08 02:40:21;;;;;;;4.28;2.60;;;20.40;81.60;;;;;;5018132;28;20021;-86
2023/07/08 02:42:47;;;;;;;2.83;2.20;;;20.30;81.80;;;;;;5035686;28;20416;-86
2023/07/08 02:45:13;;;;;;;3.38;2.30;;;20.30;81.90;;;;;;5018171;28;20076;-86
2023/07/08 02:47:39;;;;;;;4.18;2.30;;;20.30;82.10;;;;;;5001873;28;20104;-86
2023/07/08 02:50:07;;;;;;;4.15;2.78;;;20.30;82.10;;;;;;5001575;28;20045;-86
2023/07/08 02:52:32;;;;;;;4.50;2.40;;;20.30;82.20;;;;;;5017642;28;20134;-87
2023/07/08 02:54:58;;;;;;;3.53;2.25;;;20.20;82.20;;;;;;5018020;28;20124;-86
2023/07/08 02:57:24;;;;;;;2.92;2.10;;;20.20;82.30;;;;;;5035681;28;20055;-87
2023/07/08 02:59:49;;;;;;;3.47;2.35;;;20.20;82.40;;;;;;5001389;28;20116;-87
2023/07/08 03:02:15;;;;;;;3.08;2.30;;;20.10;82.40;;;;;;5018128;28;20172;-86
2023/07/08 03:04:41;;;;;;;3.80;2.47;;;20.10;82.60;;;;;;4985505;28;20080;-86
2023/07/08 03:07:11;;;;;;;2.70;2.25;;;20.10;82.70;;;;;;5018190;28;20057;-86
2023/07/08 03:09:38;;;;;;;3.92;2.35;;;20.10;82.90;;;;;;5002020;28;20029;-86
2023/07/08 03:12:05;;;;;;;3.53;2.20;;;20.10;82.90;;;;;;5018191;28;20040;-86
2023/07/08 03:14:31;;;;;;;3.05;2.33;;;20.00;83.00;;;;;;5018959;28;20472;-86
2023/07/08 03:16:57;;;;;;;3.20;2.38;;;20.00;83.10;;;;;;5014847;28;20010;-87
2023/07/08 03:19:22;;;;;;;3.25;2.45;;;20.00;83.20;;;;;;5042034;28;20029;-86
2023/07/08 03:21:48;;;;;;;3.17;2.35;;;20.00;83.30;;;;;;5042042;28;20092;-85
2023/07/08 03:24:18;;;;;;;2.55;2.10;;;20.00;83.40;;;;;;5042071;28;20089;-83
2023/07/08 03:26:44;;;;;;;4.70;2.55;;;20.00;83.50;;;;;;5037319;28;20031;-86
2023/07/08 03:29:18;;;;;;;2.53;2.08;;;20.00;83.50;;;;;;5040751;28;20021;-86
2023/07/08 03:31:45;;;;;;;2.80;2.45;;;19.90;83.50;;;;;;5017429;28;20080;-86
2023/07/08 03:34:12;;;;;;;2.53;2.00;;;19.90;83.70;;;;;;5017221;28;20121;-85
2023/07/08 03:36:49;;;;;;;3.10;2.50;;;19.90;83.80;;;;;;5016359;28;20021;-87
2023/07/08 03:39:16;;;;;;;2.67;2.08;;;19.90;83.80;;;;;;5034820;28;20124;-86
2023/07/08 03:41:42;;;;;;;3.08;2.35;;;19.90;83.90;;;;;;5017017;28;20022;-86
2023/07/08 03:44:08;;;;;;;3.03;2.40;;;19.90;83.90;;;;;;5016989;28;20479;-87
2023/07/08 03:46:34;;;;;;;3.03;2.40;;;19.90;84.00;;;;;;5016788;28;20530;-86
2023/07/08 03:48:59;;;;;;;3.38;2.38;;;19.90;84.00;;;;;;5000416;28;20033;-86
2023/07/08 03:51:37;;;;;;;2.85;2.55;;;19.90;84.10;;;;;;5000735;28;20029;-86
2023/07/08 03:54:03;;;;;;;2.90;2.40;;;19.90;84.10;;;;;;5016856;28;20072;-86
2023/07/08 03:56:29;;;;;;;2.70;2.20;;;19.90;84.10;;;;;;5017126;28;20496;-85
2023/07/08 03:58:58;;;;;;;3.45;2.25;;;19.90;84.20;;;;;;5000266;28;20030;-86
2023/07/08 04:01:26;;;;;;;2.63;2.20;;;19.90;84.20;;;;;;4985019;28;20029;-86
2023/07/08 04:03:53;;;;;;;3.42;2.50;;;19.90;84.30;;;;;;5016544;28;20021;-86
2023/07/08 04:06:19;;;;;;;3.92;2.47;;;19.90;84.40;;;;;;5016819;28;20025;-86
2023/07/08 04:08:46;;;;;;;5.72;2.75;;;19.90;84.40;;;;;;5016198;28;20021;-86
2023/07/08 04:11:17;;;;;;;3.03;2.03;;;19.80;85.00;;;;;;5016634;28;20097;-85
2023/07/08 04:13:43;;;;;;;3.40;2.03;;;19.90;84.50;;;;;;5034282;28;20088;-86
2023/07/08 04:16:28;;;;;;;3.20;2.40;;;19.90;84.60;;;;;;5016787;28;20029;-86
2023/07/08 04:18:54;;;;;;;3.53;2.60;;;19.90;84.70;;;;;;5033939;28;20104;-85
2023/07/08 04:21:20;;;;;;;2.25;2.05;;;19.90;84.90;;;;;;5016464;28;20384;-86
2023/07/08 04:23:49;;;;;;;2.85;2.10;;;19.80;84.90;;;;;;5016417;28;20025;-85
2023/07/08 04:26:15;;;;;;;2.40;2.20;;;19.90;85.00;;;;;;5016228;28;20053;-85
2023/07/08 04:28:42;;;;;;;3.13;2.30;;;19.80;85.00;;;;;;4999981;28;20050;-86
2023/07/08 04:31:07;;;;;;;3.72;2.28;;;19.90;85.00;;;;;;5016093;28;20030;-86
2023/07/08 04:33:33;;;;;;;4.78;2.50;;;19.90;85.00;;;;;;4999840;28;20471;-85
2023/07/08 04:35:59;;;;;;;4.03;2.47;;;19.90;85.00;;;;;;5016164;28;20037;-85
2023/07/08 04:38:26;;;;;;;4.95;2.80;;;19.90;85.10;;;;;;5016357;28;20028;-85
2023/07/08 04:40:53;;;;;;;2.42;2.17;;;19.90;85.20;;;;;;5033794;28;20025;-85
2023/07/08 04:43:20;;;;;;;3.20;2.20;;;19.90;85.20;;;;;;5033773;28;20440;-86
2023/07/08 04:45:51;;;;;;;3.47;2.30;;;19.90;85.30;;;;;;5034072;28;20049;-87
2023/07/08 04:48:20;;;;;;;3.33;2.53;;;19.90;85.40;;;;;;5018778;28;20366;-85
2023/07/08 04:50:50;;;;;;;2.72;2.10;;;19.90;85.40;;;;;;5037821;28;20024;-86
2023/07/08 04:53:17;;;;;;;3.05;2.15;;;19.90;85.30;;;;;;5020541;28;20021;-85
2023/07/08 04:55:47;;;;;;;5.05;2.95;;;19.90;85.40;;;;;;5020094;28;20035;-85
2023/07/08 04:58:13;;;;;;;5.15;2.20;;;19.90;85.50;;;;;;5020718;28;20064;-86
2023/07/08 05:00:38;;;;;;;4.55;2.20;;;19.90;85.50;;;;;;5020048;28;20033;-85
2023/07/08 05:03:04;;;;;;;4.47;2.33;;;19.90;85.60;;;;;;5038008;28;20440;-86
2023/07/08 05:05:30;;;;;;;3.13;2.38;;;19.90;85.50;;;;;;5020439;28;20026;-86
2023/07/08 05:07:56;;;;;;;3.50;2.13;;;19.90;85.60;;;;;;5037789;28;20029;-85
2023/07/08 05:10:22;;;;;;;4.93;2.17;;;19.90;85.70;;;;;;5004770;28;20025;-86
2023/07/08 05:12:50;;;;;;;3.05;2.33;;;19.90;85.70;;;;;;5043432;28;20052;-85
2023/07/08 05:15:16;;;;;;;3.63;2.25;;;20.00;85.80;;;;;;5028492;28;20033;-85
2023/07/08 05:17:42;;;;;;;2.53;2.10;;;20.00;85.80;;;;;;5061479;28;20010;-84
2023/07/08 05:20:12;;;;;;;3.38;2.67;;;20.00;85.80;;;;;;5044011;28;20036;-86
2023/07/08 05:22:38;;;;;;;3.28;2.33;;;20.00;85.80;;;;;;5025630;28;20097;-85
2023/07/08 05:25:05;;;;;;;4.35;2.53;;;20.00;85.80;;;;;;5004512;28;20044;-86
2023/07/08 05:27:33;;;;;;;3.05;2.40;;;20.00;85.80;;;;;;5004030;28;20041;-86
2023/07/08 05:29:59;;;;;;;3.80;2.42;;;20.00;85.80;;;;;;5037656;28;20026;-86
2023/07/08 05:32:26;;;;;;;5.70;2.83;;;20.00;85.90;;;;;;5019429;28;20045;-86
2023/07/08 05:34:52;;;;;;;3.83;2.58;;;20.00;85.70;;;;;;5019292;28;20033;-86
2023/07/08 05:37:21;;;;;;;3.58;2.30;;;20.00;85.60;;;;;;5037028;28;20022;-86
2023/07/08 05:39:47;;;;;;;5.00;2.78;;;20.00;85.60;;;;;;5004184;28;20464;-86
2023/07/08 05:42:12;;;;;;;4.57;2.72;;;20.10;85.70;;;;;;5037094;28;20049;-86
2023/07/08 05:44:38;;;;;;;3.97;2.20;;;20.10;85.70;;;;;;4986640;28;20127;-85
2023/07/08 05:47:04;;;;;;;4.35;2.28;;;20.10;85.60;;;;;;5036852;28;20029;-85
2023/07/08 05:49:30;;;;;;;3.95;2.33;;;20.20;85.60;;;;;;5003016;28;20026;-86
2023/07/08 05:51:55;;;;;;;3.53;2.63;;;20.20;85.60;;;;;;5019185;28;20044;-86
2023/07/08 05:54:21;;;;;;;2.63;2.35;;;20.10;85.40;;;;;;5019005;28;20396;-86
2023/07/08 05:56:46;;;;;;;4.13;2.42;;;20.10;85.40;;;;;;5002622;28;20113;-86
2023/07/08 05:59:12;;;;;;;4.38;2.20;;;20.20;85.50;;;;;;4985837;28;20389;-86
2023/07/08 06:01:38;;;;;;;2.63;2.30;;;20.20;85.50;;;;;;5002560;28;20503;-86
2023/07/08 06:04:03;;;;;;;3.72;1.95;;;20.20;85.40;;;;;;5036581;28;20036;-85
2023/07/08 06:06:29;;;;;;;3.30;2.60;;;20.30;85.40;;;;;;5018755;28;20091;-86
2023/07/08 06:08:55;;;;;;;4.28;2.22;;;20.30;85.30;;;;;;4986360;28;20046;-87
2023/07/08 06:11:21;;;;;;;2.80;2.30;;;20.40;85.50;;;;;;5018357;28;20045;-86
2023/07/08 06:13:47;;;;;;;3.33;2.35;;;20.40;85.40;;;;;;5002503;28;20401;-86
2023/07/08 06:16:13;;;;;;;3.95;2.20;;;20.50;85.50;;;;;;5018073;28;20484;-86
2023/07/08 06:18:39;;;;;;;3.30;2.58;;;20.50;85.50;;;;;;5018407;28;20128;-86
2023/07/08 06:21:05;;;;;;;3.85;2.65;;;20.60;85.50;;;;;;5018529;28;20030;-86
2023/07/08 06:23:31;;;;;;;2.53;1.90;;;20.60;85.50;;;;;;5018150;28;20022;-86
2023/07/08 06:25:57;;;;;;;3.88;2.25;;;20.60;85.60;;;;;;5017784;28;20082;-86
2023/07/08 06:28:23;;;;;;;3.15;2.25;;;20.70;85.70;;;;;;5014055;28;20061;-86
2023/07/08 06:30:49;;;;;;;3.30;2.30;;;20.80;85.60;;;;;;5014771;28;20038;-85
2023/07/08 06:33:15;;;;;;;5.90;2.55;;;20.80;85.60;;;;;;5014501;28;20053;-86
2023/07/08 06:35:41;;;;;;;4.35;2.45;;;20.80;85.60;;;;;;5014649;28;20026;-85
2023/07/08 06:38:07;;;;;;;3.05;2.20;;;20.90;85.60;;;;;;5014516;28;20029;-87
2023/07/08 06:40:33;;;;;;;3.83;2.17;;;20.90;85.60;;;;;;5014773;28;20033;-86
2023/07/08 06:43:01;;;;;;;2.85;2.15;;;21.00;85.70;;;;;;5015925;28;20030;-87
2023/07/08 06:45:27;;;;;;;3.28;2.15;;;21.10;85.60;;;;;;4998577;28;20026;-87
2023/07/08 06:47:53;;;;;;;3.83;2.20;;;21.10;85.60;;;;;;5014500;28;20544;-86
2023/07/08 06:50:18;;;;;;;2.95;2.40;;;21.20;85.70;;;;;;5015601;28;20029;-86
2023/07/08 06:52:44;;;;;;;3.15;2.70;;;21.30;85.80;;;;;;5015927;28;20030;-85
2023/07/08 06:55:11;;;;;;;2.28;2.08;;;21.40;85.70;;;;;;5016043;28;20026;-86
2023/07/08 06:57:40;;;;;;;4.53;2.70;;;21.40;85.70;;;;;;4998932;28;20461;-87
2023/07/08 07:00:08;;;;;;;3.53;2.30;;;21.50;85.60;;;;;;5014080;28;20117;-86
2023/07/08 07:02:34;;;;;;;2.78;2.10;;;21.50;85.30;;;;;;5015293;28;20026;-87
2023/07/08 07:05:00;;;;;;;3.33;2.58;;;21.50;85.40;;;;;;4999743;28;20022;-85
2023/07/08 07:07:26;;;;;;;2.83;2.33;;;21.60;85.30;;;;;;5027764;28;20036;-85
2023/07/08 07:09:51;;;;;;;2.83;2.20;;;21.70;85.10;;;;;;5038467;28;20014;-86
2023/07/08 07:12:17;;;;;;;3.63;2.47;;;21.80;85.10;;;;;;5021126;28;20025;-85
2023/07/08 07:14:43;;;;;;;3.00;2.33;;;21.80;84.90;;;;;;5037737;28;20018;-85
2023/07/08 07:17:08;;;;;;;2.83;2.40;;;21.90;84.90;;;;;;5020908;28;20022;-85
2023/07/08 07:19:35;;;;;;;2.67;2.17;;;22.00;84.60;;;;;;5007792;28;20401;-87
2023/07/08 07:22:00;;;;;;;4.88;2.35;;;22.10;84.50;;;;;;5016131;28;20026;-86
2023/07/08 07:24:26;;;;;;;3.05;2.30;;;22.20;84.60;;;;;;5014683;28;20551;-86
2023/07/08 07:26:52;;;;;;;2.83;2.13;;;22.30;84.70;;;;;;5013947;28;20026;-86
2023/07/08 07:29:18;;;;;;;4.68;2.70;;;22.40;84.70;;;;;;5032286;28;20049;-86
2023/07/08 07:31:43;;;;;;;2.80;2.22;;;22.40;84.40;;;;;;5016800;28;20033;-87
2023/07/08 07:34:11;;;;;;;2.75;2.13;;;22.50;84.30;;;;;;5034628;28;20021;-86
2023/07/08 07:36:37;;;;;;;2.83;2.10;;;22.60;84.40;;;;;;5017112;28;20571;-85
2023/07/08 07:39:03;;;;;;;3.40;2.28;;;22.70;84.50;;;;;;5000138;28;20038;-85
2023/07/08 07:41:29;;;;;;;5.07;2.72;;;22.80;84.50;;;;;;5016738;28;20025;-86
2023/07/08 07:43:54;;;;;;;3.28;2.55;;;22.90;84.20;;;;;;5017213;28;20018;-86
2023/07/08 07:46:21;;;;;;;3.17;2.50;;;22.90;83.90;;;;;;5016600;28;20060;-86
2023/07/08 07:48:47;;;;;;;3.28;2.58;;;23.00;83.90;;;;;;5000505;28;20034;-87
2023/07/08 07:51:13;;;;;;;3.85;2.78;;;23.10;83.60;;;;;;5016654;28;20100;-86
2023/07/08 07:53:39;;;;;;;3.53;2.60;;;23.10;83.40;;;;;;5034538;28;20033;-88
2023/07/08 07:56:06;;;;;;;3.30;2.38;;;23.20;83.20;;;;;;5017555;28;20025;-88
2023/07/08 07:58:32;;;;;;;3.33;2.70;;;23.30;83.30;;;;;;5017041;28;20488;-86
2023/07/08 08:00:57;;;;;;;3.40;2.63;;;23.30;83.10;;;;;;5000291;28;20483;-86
2023/07/08 08:03:23;;;;;;;4.43;2.78;;;23.40;82.50;;;;;;4999902;28;20022;-86
2023/07/08 08:05:49;;;;;;;5.35;2.95;;;23.50;83.00;;;;;;5000021;28;20029;-87
2023/07/08 08:08:16;;;;;;;4.30;2.92;;;23.60;82.80;;;;;;5033695;28;20025;-86
2023/07/08 08:10:44;;;;;;;4.13;2.72;;;23.60;83.40;;;;;;5015987;28;20496;-86
2023/07/08 08:13:13;;;;;;;2.90;2.22;;;23.70;82.80;;;;;;5016391;28;20416;-86
2023/07/08 08:15:39;;;;;;;6.13;2.53;;;23.80;82.80;;;;;;5016183;28;20026;-86
2023/07/08 08:18:10;;;;;;;3.70;2.65;;;23.90;82.50;;;;;;4999793;28;20032;-86
2023/07/08 08:20:35;;;;;;;4.43;2.67;;;24.00;82.30;;;;;;5016433;28;20026;-86
2023/07/08 08:23:01;;;;;;;4.15;2.60;;;24.10;82.00;;;;;;5015671;28;20039;-87
2023/07/08 08:25:27;;;;;;;3.08;2.78;;;24.20;81.60;;;;;;4999781;28;20105;-85
2023/07/08 08:27:52;;;;;;;4.03;2.90;;;24.20;81.20;;;;;;4999451;28;20140;-86
2023/07/08 08:30:18;;;;;;;3.25;2.75;;;24.40;81.10;;;;;;5016009;28;20024;-86
2023/07/08 08:32:46;;;;;;;3.70;2.92;;;24.50;80.90;;;;;;4983818;28;20052;-86
2023/07/08 08:35:11;;;;;;;3.33;2.67;;;24.60;80.70;;;;;;5016202;28;20439;-86
2023/07/08 08:37:37;;;;;;;3.65;2.70;;;24.60;80.40;;;;;;5015875;28;20424;-86
2023/07/08 08:40:03;;;;;;;3.35;2.70;;;24.70;80.60;;;;;;4999821;28;20029;-86
2023/07/08 08:42:42;;;;;;;3.65;2.75;;;24.80;80.80;;;;;;5000078;28;20072;-87
2023/07/08 08:45:13;;;;;;;4.43;3.15;;;24.90;80.60;;;;;;5015927;28;20025;-87
2023/07/08 08:47:42;;;;;;;2.75;2.50;;;24.90;80.80;;;;;;5033757;28;20026;-86
2023/07/08 08:50:10;;;;;;;4.30;2.78;;;24.90;81.00;;;;;;5015956;28;20075;-87
2023/07/08 08:52:41;;;;;;;4.20;2.70;;;25.10;81.20;;;;;;5016146;28;20034;-86
2023/07/08 08:55:14;;;;;;;4.25;2.60;;;25.10;81.00;;;;;;5016841;28;20041;-87
2023/07/08 08:57:54;;;;;;;5.60;3.20;;;25.20;80.90;;;;;;5016447;28;20060;-87
2023/07/08 09:00:40;;;;;;;4.80;3.22;;;25.30;80.80;;;;;;5017081;28;20026;-87
2023/07/08 09:03:14;;;;;;;4.38;3.22;;;25.30;80.50;;;;;;5021074;28;20029;-87
2023/07/08 09:05:42;;;;;;;5.25;3.00;;;25.40;80.40;;;;;;5025796;28;20029;-87
2023/07/08 09:08:22;;;;;;;4.20;3.00;;;25.50;80.50;;;;;;5045968;28;20025;-87
2023/07/08 09:10:51;;;;;;;4.35;3.40;;;25.50;80.40;;;;;;5030269;28;20025;-86
2023/07/08 09:13:32;;;;;;;4.20;2.97;;;25.60;80.30;;;;;;5038561;28;20022;-88
2023/07/08 09:16:05;;;;;;;3.65;3.03;;;25.70;80.40;;;;;;5038706;28;20032;-88
2023/07/08 09:18:45;;;;;;;6.10;3.28;;;25.80;80.50;;;;;;5037277;28;20052;-86
2023/07/08 09:21:20;;;;;;;4.72;3.25;;;25.80;80.40;;;;;;5036396;28;20032;-87
2023/07/08 09:23:49;;;;;;;3.88;3.00;;;25.90;80.60;;;;;;5029001;28;20035;-88
2023/07/08 09:26:22;;;;;;;4.32;3.38;;;26.00;80.60;;;;;;5018557;28;20480;-87
2023/07/08 09:28:48;;;;;;;6.18;3.72;;;26.00;79.80;;;;;;5015594;28;20037;-87
2023/07/08 09:31:36;;;;;;;4.95;3.33;;;26.10;79.60;;;;;;4999360;28;20034;-87
2023/07/08 09:34:23;;;;;;;5.65;3.40;;;26.20;79.40;;;;;;5016466;28;20029;-86
2023/07/08 09:36:51;;;;;;;3.95;3.22;;;26.20;79.10;;;;;;5019752;28;20033;-87
2023/07/08 09:39:20;;;;;;;5.53;3.50;;;26.30;79.10;;;;;;5037229;28;20022;-88
2023/07/08 09:41:48;;;;;;;5.95;3.20;;;26.40;78.60;;;;;;5019327;28;20029;-88
2023/07/08 09:44:31;;;;;;;3.63;3.13;;;26.50;78.40;;;;;;5019482;28;20163;-87
2023/07/08 09:46:58;;;;;;;4.13;3.42;;;26.50;78.50;;;;;;5019515;28;20044;-88
2023/07/08 09:49:35;;;;;;;4.50;3.28;;;26.60;78.70;;;;;;5019234;28;20377;-87
2023/07/08 09:52:10;;;;;;;5.05;3.88;;;26.70;78.60;;;;;;5019148;28;20033;-88
2023/07/08 09:54:44;;;;;;;7.20;3.92;;;26.70;77.90;;;;;;5018704;28;20017;-87
2023/07/08 09:57:29;;;;;;;3.80;3.25;;;26.80;77.70;;;;;;5019641;28;20030;-88
2023/07/08 10:00:11;;;;;;;3.85;3.20;;;26.80;77.90;;;;;;5036770;28;20029;-86
2023/07/08 10:02:59;;;;;;;5.55;3.38;;;26.90;78.30;;;;;;5018867;28;20022;-89
2023/07/08 10:05:46;;;;;;;4.60;3.60;;;26.90;78.50;;;;;;5018549;28;20029;-87
2023/07/08 10:08:15;;;;;;;6.45;4.40;;;27.00;77.70;;;;;;5019296;28;20480;-88
2023/07/08 10:10:49;;;;;;;4.57;3.78;;;27.10;77.90;;;;;;5018671;28;20450;-87
2023/07/08 10:13:28;;;;;;;6.70;3.83;;;27.10;78.10;;;;;;5018527;28;20067;-89
2023/07/08 10:16:23;;;;;;;4.75;3.70;;;27.20;78.10;;;;;;5019195;28;20057;-88
2023/07/08 10:18:49;;;;;;;5.63;3.70;;;27.20;77.80;;;;;;5019453;28;20136;-88
2023/07/08 10:21:56;;;;;;;4.72;3.80;;;27.30;77.40;;;;;;5002838;28;20069;-88
2023/07/08 10:24:34;;;;;;;5.00;3.97;;;27.40;77.20;;;;;;5018834;28;20100;-88
2023/07/08 10:27:25;;;;;;;4.82;3.67;;;27.40;77.40;;;;;;5019551;28;20034;-88
2023/07/08 10:30:05;;;;;;;4.20;3.80;;;27.40;77.70;;;;;;5019362;28;20042;-87
2023/07/08 10:33:03;;;;;;;4.22;3.70;;;27.50;77.50;;;;;;5038006;28;20460;-88
2023/07/08 10:35:51;;;;;;;4.28;3.88;;;27.60;77.50;;;;;;5019151;28;20017;-86
2023/07/08 10:38:44;;;;;;;4.47;3.95;;;27.70;77.10;;;;;;5019750;28;20379;-88
2023/07/08 10:41:42;;;;;;;6.22;4.40;;;27.70;76.60;;;;;;5020054;28;20059;-87
2023/07/08 10:44:17;;;;;;;5.25;3.90;;;27.80;75.50;;;;;;5019334;28;20053;-88
2023/07/08 10:47:01;;;;;;;5.55;4.30;;;27.90;75.70;;;;;;5036521;28;20108;-87
2023/07/08 10:49:48;;;;;;;4.75;3.90;;;27.90;74.80;;;;;;5021501;28;20029;-87
2023/07/08 10:52:31;;;;;;;4.97;4.25;;;28.00;74.90;;;;;;5020119;28;20026;-87
2023/07/08 10:55:21;;;;;;;5.68;4.18;;;28.10;74.30;;;;;;5019006;28;20029;-89
2023/07/08 10:57:56;;;;;;;5.95;4.50;;;28.20;74.30;;;;;;5018694;28;20026;-86
2023/07/08 11:03:37;;;;;;;5.07;4.50;;;28.30;74.30;;;;;;5081544;22;20491;-89
2023/07/08 11:06:17;;;;;;;5.90;4.25;;;28.40;74.40;;;;;;5036321;28;20048;-88
2023/07/08 11:08:53;;;;;;;5.50;4.10;;;28.40;74.20;;;;;;5018585;28;20089;-87
2023/07/08 11:11:41;;;;;;;4.82;3.92;;;28.50;74.50;;;;;;5018764;28;20483;-87
2023/07/08 11:14:37;;;;;;;5.18;4.18;;;28.50;74.60;;;;;;5018498;28;20464;-88
2023/07/08 11:17:38;;;;;;;5.20;4.00;;;28.60;74.40;;;;;;4990187;28;20037;-87
2023/07/08 11:20:39;;;;;;;4.95;3.95;;;28.70;74.30;;;;;;5017112;28;20021;-86
2023/07/08 11:23:14;;;;;;;5.60;3.92;;;28.70;74.50;;;;;;5017734;28;20030;-86
2023/07/08 11:25:59;;;;;;;5.15;3.55;;;28.80;74.50;;;;;;5017878;28;20025;-87
2023/07/08 11:28:31;;;;;;;5.45;4.65;;;28.90;74.70;;;;;;5017911;28;20087;-87
2023/07/08 11:31:04;;;;;;;5.05;4.30;;;28.90;74.20;;;;;;5018668;28;20026;-87
2023/07/08 11:33:32;;;;;;;4.78;4.18;;;29.00;73.80;;;;;;5017557;28;20034;-86
2023/07/08 11:36:00;;;;;;;4.88;4.13;;;29.00;74.00;;;;;;5034615;28;20064;-86
2023/07/08 11:38:26;;;;;;;5.88;3.70;;;29.10;74.10;;;;;;5035140;28;20025;-87
2023/07/08 11:41:02;;;;;;;5.70;3.72;;;29.10;74.20;;;;;;5017574;28;20065;-87
2023/07/08 11:43:36;;;;;;;4.78;4.00;;;29.20;74.10;;;;;;5017397;28;20014;-87
2023/07/08 11:46:06;;;;;;;5.10;4.13;;;29.20;73.80;;;;;;5018872;28;20025;-86
2023/07/08 11:48:46;;;;;;;4.68;4.03;;;29.30;73.40;;;;;;5017606;28;20021;-85
2023/07/08 11:51:23;;;;;;;6.55;4.18;;;29.30;73.30;;;;;;5017436;28;20059;-86
2023/07/08 11:53:59;;;;;;;5.20;4.03;;;29.40;73.10;;;;;;5018126;28;20028;-88
2023/07/08 11:56:25;;;;;;;5.50;4.38;;;29.40;72.80;;;;;;5018173;28;20415;-85
2023/07/08 11:59:19;;;;;;;5.68;4.10;;;29.50;72.50;;;;;;5016961;28;20034;-87
2023/07/08 12:02:18;;;;;;;5.55;4.45;;;29.50;72.20;;;;;;5017009;28;20052;-86
2023/07/08 12:04:58;;;;;;;5.68;4.07;;;29.60;71.20;;;;;;5012098;28;20026;-86
2023/07/08 12:07:47;;;;;;;5.95;4.05;;;29.70;71.40;;;;;;5017344;28;20025;-86
2023/07/08 12:10:33;;;;;;;6.13;4.18;;;29.70;71.40;;;;;;5018138;28;20022;-87
2023/07/08 12:12:58;;;;;;;5.22;4.30;;;29.70;71.70;;;;;;5017608;28;20041;-86
2023/07/08 12:15:30;;;;;;;6.57;4.13;;;29.70;72.20;;;;;;5018974;28;20037;-87
2023/07/08 12:18:04;;;;;;;5.15;4.47;;;29.80;72.00;;;;;;5019190;28;20044;-87
2023/07/08 12:20:39;;;;;;;5.35;4.03;;;29.90;70.70;;;;;;5019671;28;20040;-87
2023/07/08 12:23:23;;;;;;;5.30;4.32;;;30.00;69.80;;;;;;5024199;28;20037;-87
2023/07/08 12:25:49;;;;;;;7.72;4.60;;;30.00;69.90;;;;;;5039796;28;20010;-85
2023/07/08 12:28:16;;;;;;;5.68;4.70;;;30.00;69.40;;;;;;5023994;28;20077;-86
2023/07/08 12:30:43;;;;;;;4.53;4.00;;;30.00;68.90;;;;;;5024032;28;20113;-86
2023/07/08 12:33:13;;;;;;;6.57;4.57;;;30.00;69.10;;;;;;5057055;28;20025;-86
2023/07/08 12:35:40;;;;;;;5.25;4.60;;;30.10;69.30;;;;;;5030096;28;20026;-86
2023/07/08 12:38:15;;;;;;;5.93;4.63;;;30.20;69.40;;;;;;5018446;28;20022;-86
2023/07/08 12:40:41;;;;;;;5.50;4.38;;;30.20;69.40;;;;;;5018244;28;20037;-86
2023/07/08 12:43:13;;;;;;;6.45;4.45;;;30.20;68.90;;;;;;5017837;28;20037;-86
2023/07/08 12:45:38;;;;;;;6.43;4.63;;;30.30;68.40;;;;;;5018054;28;20117;-86
2023/07/08 12:48:04;;;;;;;6.55;4.30;;;30.40;67.80;;;;;;5002356;28;20079;-85
2023/07/08 12:50:30;;;;;;;5.93;4.43;;;30.40;67.90;;;;;;5017985;28;20034;-87
2023/07/08 12:52:56;;;;;;;4.65;4.13;;;30.50;67.90;;;;;;5000825;28;20131;-86
2023/07/08 12:55:23;;;;;;;6.15;4.55;;;30.50;68.10;;;;;;5016874;28;20030;-87
2023/07/08 12:57:51;;;;;;;6.03;4.18;;;30.50;68.00;;;;;;5000701;28;20052;-86
2023/07/08 13:00:35;;;;;;;5.25;4.30;;;30.50;68.00;;;;;;5019074;28;20029;-87
2023/07/08 13:03:16;;;;;;;6.53;4.80;;;30.50;68.00;;;;;;5034494;28;20080;-86
2023/07/08 13:05:43;;;;;;;5.30;3.97;;;30.50;67.70;;;;;;5017708;28;20522;-87
2023/07/08 13:08:15;;;;;;;5.25;4.25;;;30.60;67.80;;;;;;5035496;28;20022;-87